createdAt,value
2019-03-21T00:03:01.115Z,171.83
2019-03-21T00:08:10.095Z,250.35
2019-03-21T00:13:19.094Z,178.20
2019-03-21T00:18:28.086Z,219.21
2019-03-21T00:23:37.063Z,238.90
2019-03-21T00:28:46.070Z,249.30
2019-03-21T00:33:55.138Z,273.43
2019-03-21T00:39:04.202Z,299.09
2019-03-21T00:44:18.224Z,297.48
2019-03-21T00:49:21.685Z,290.62
2019-03-21T00:54:30.654Z,280.84
2019-03-21T00:59:39.649Z,286.43
2019-03-21T01:04:48.619Z,279.79
2019-03-21T01:09:57.830Z,290.46
2019-03-21T01:15:06.787Z,406.49
2019-03-21T01:20:15.763Z,255.12
2019-03-21T01:25:24.694Z,257.02
2019-03-21T01:30:33.739Z,225.39
2019-03-21T01:35:42.693Z,244.76
2019-03-21T01:40:51.701Z,241.69
2019-03-21T01:46:00.650Z,354.05
2019-03-21T01:51:09.657Z,234.79
2019-03-21T01:56:18.611Z,237.13
2019-03-21T02:01:27.589Z,225.73
2019-03-21T02:06:36.594Z,182.94
2019-03-21T02:11:45.598Z,139.94
2019-03-21T02:16:54.550Z,114.18
2019-03-21T02:22:03.561Z,84.41
2019-03-21T02:27:12.558Z,111.18
2019-03-21T02:32:21.583Z,56.80
2019-03-21T02:37:30.538Z,54.83
2019-03-21T02:42:39.597Z,52.51
2019-03-21T02:47:48.650Z,62.03
2019-03-21T02:52:57.693Z,55.48
2019-03-21T02:58:06.631Z,57.68
2019-03-21T03:03:15.702Z,50.86
2019-03-21T03:08:24.696Z,50.02
2019-03-21T03:13:33.723Z,63.53
2019-03-21T03:18:42.670Z,63.65
2019-03-21T03:23:51.680Z,63.28
2019-03-21T03:29:00.668Z,46.26
2019-03-21T03:34:09.742Z,62.30
2019-03-21T03:39:18.734Z,35.40
2019-03-21T03:44:27.794Z,36.92
2019-03-21T03:49:36.783Z,56.32
2019-03-21T03:54:45.829Z,43.04
2019-03-21T03:59:54.820Z,33.10
2019-03-21T04:05:03.822Z,39.56
2019-03-21T04:10:12.802Z,54.77
2019-03-21T04:15:21.844Z,63.55
2019-03-21T04:20:30.822Z,61.15
2019-03-21T04:25:39.999Z,82.55
2019-03-21T04:30:48.987Z,63.76
2019-03-21T04:35:58.015Z,53.20
2019-03-21T04:41:07.010Z,56.91
2019-03-21T04:46:16.024Z,78.96
2019-03-21T04:51:24.949Z,43.83
2019-03-21T04:56:34.003Z,47.69
2019-03-21T05:01:42.990Z,54.68
2019-03-21T05:06:52.001Z,88.56
2019-03-21T05:12:00.975Z,79.09
2019-03-21T05:17:09.986Z,78.60
2019-03-21T05:22:18.960Z,84.20
2019-03-21T05:27:28.023Z,99.25
2019-03-21T05:32:36.982Z,74.60
2019-03-21T05:37:46.034Z,80.47
2019-03-21T05:42:55.021Z,76.99
2019-03-21T05:48:04.039Z,95.54
2019-03-21T05:53:12.994Z,104.83
2019-03-21T05:58:21.995Z,91.50
2019-03-21T06:03:31.030Z,143.97
2019-03-21T06:08:40.042Z,88.34
2019-03-21T06:13:49.062Z,102.92
2019-03-21T06:18:58.114Z,110.58
2019-03-21T06:24:07.094Z,121.34
2019-03-21T06:29:16.188Z,112.96
2019-03-21T06:34:25.170Z,140.61
2019-03-21T06:39:34.174Z,93.25
2019-03-21T06:44:43.166Z,143.94
2019-03-21T06:49:52.234Z,78.87
2019-03-21T06:55:01.223Z,98.81
2019-03-21T07:00:10.266Z,105.81
2019-03-21T07:05:19.254Z,115.60
2019-03-21T07:10:28.303Z,125.81
2019-03-21T07:15:37.302Z,115.31
2019-03-21T07:20:46.398Z,177.03
2019-03-21T07:25:55.379Z,138.32
2019-03-21T07:31:04.382Z,116.46
2019-03-21T07:36:13.363Z,119.11
2019-03-21T07:41:22.374Z,111.54
2019-03-21T07:46:32.139Z,107.04
2019-03-21T07:51:39.876Z,102.29
2019-03-21T07:56:48.865Z,81.05
2019-03-21T08:01:57.869Z,79.27
2019-03-21T08:07:06.850Z,73.86
2019-03-21T08:12:15.875Z,140.02
2019-03-21T08:17:24.858Z,140.21
2019-03-21T08:22:33.935Z,206.28
2019-03-21T08:27:42.915Z,239.07
2019-03-21T08:32:51.890Z,266.91
2019-03-21T08:38:00.874Z,266.42
2019-03-21T08:43:09.902Z,257.16
2019-03-21T08:48:18.892Z,221.87
2019-03-21T08:53:27.844Z,193.88
2019-03-21T08:58:36.807Z,186.89
2019-03-21T09:03:45.886Z,164.26
2019-03-21T09:08:54.806Z,115.51
2019-03-21T09:14:03.878Z,122.19
2019-03-21T09:19:12.841Z,138.10
2019-03-21T09:24:21.804Z,126.34
2019-03-21T09:29:30.748Z,154.14
2019-03-21T09:34:40.136Z,162.87
2019-03-21T09:39:49.067Z,251.59
2019-03-21T09:44:58.078Z,181.23
2019-03-21T09:50:07.035Z,105.03
2019-03-21T09:55:15.998Z,75.66
2019-03-21T10:00:24.988Z,49.77
2019-03-21T10:05:33.994Z,47.09
2019-03-21T10:10:42.927Z,42.99
2019-03-21T10:15:52.206Z,35.68
2019-03-21T10:21:01.126Z,303.24
2019-03-21T10:26:10.090Z,106.87
2019-03-21T10:31:19.038Z,138.84
2019-03-21T10:36:28.042Z,249.08
2019-03-21T10:41:37.025Z,219.51
2019-03-21T10:46:45.982Z,215.36
2019-03-21T10:51:55.461Z,181.24
2019-03-21T10:57:03.424Z,196.48
2019-03-21T11:02:12.362Z,99.24
2019-03-21T11:07:21.410Z,114.47
2019-03-21T11:12:30.346Z,166.23
2019-03-21T11:17:39.341Z,205.76
2019-03-21T11:22:48.285Z,154.27
2019-03-21T11:27:57.372Z,157.11
2019-03-21T11:33:06.338Z,62.31
2019-03-21T11:38:15.375Z,95.14
2019-03-21T11:43:24.324Z,78.39
2019-03-21T11:48:33.392Z,76.53
2019-03-21T11:53:42.368Z,64.00
2019-03-21T11:58:51.410Z,86.68
2019-03-21T12:04:00.382Z,78.33
2019-03-21T12:09:09.489Z,53.07
2019-03-21T12:14:18.491Z,66.23
2019-03-21T12:19:27.542Z,55.58
2019-03-21T12:24:36.458Z,42.65
2019-03-21T12:29:45.570Z,83.43
2019-03-21T12:34:54.541Z,97.84
2019-03-21T12:40:03.919Z,95.29
2019-03-21T12:45:12.862Z,58.26
2019-03-21T12:50:22.100Z,86.70
2019-03-21T12:55:31.115Z,89.55
2019-03-21T13:00:40.168Z,77.38
2019-03-21T13:05:49.186Z,88.90
2019-03-21T13:11:00.704Z,83.42
2019-03-21T13:16:06.706Z,82.26
2019-03-21T13:21:15.825Z,606.98
2019-03-21T13:26:24.822Z,144.19
2019-03-21T13:31:33.897Z,475.14
2019-03-21T13:36:42.891Z,285.28
2019-03-21T13:41:51.938Z,75.40
2019-03-21T13:47:00.935Z,1525.47
2019-03-21T13:52:09.993Z,1739.19
2019-03-21T13:57:18.966Z,1758.17
2019-03-21T14:02:28.040Z,1744.46
2019-03-21T14:07:37.029Z,1777.80
2019-03-21T14:12:46.087Z,1769.76
2019-03-21T14:17:55.050Z,1771.38
2019-03-21T14:23:16.062Z,1774.60
2019-03-21T14:28:12.657Z,1776.21
2019-03-21T14:33:21.739Z,1790.26
2019-03-21T14:38:30.722Z,1769.76
2019-03-21T14:43:39.676Z,1779.38
2019-03-21T14:48:48.662Z,1796.31
2019-03-21T14:53:57.658Z,1773.00
2019-03-21T14:59:06.666Z,1796.31
2019-03-21T15:04:15.627Z,1782.53
2019-03-21T15:09:24.634Z,1785.64
2019-03-21T15:14:33.710Z,1806.59
2019-03-21T15:19:42.703Z,1761.52
2019-03-21T15:24:51.761Z,1999.90
2019-03-21T15:30:00.818Z,1999.90
2019-03-21T15:35:09.806Z,1790.26
2019-03-21T15:40:18.792Z,1802.23
2019-03-21T15:45:27.744Z,1780.96
2019-03-21T15:50:38.060Z,1999.90
2019-03-21T15:55:45.246Z,1797.80
2019-03-21T16:00:54.239Z,1812.31
2019-03-21T16:06:03.265Z,1802.23
2019-03-21T16:11:12.188Z,1782.53
2019-03-21T16:16:21.195Z,1754.79
2019-03-21T16:21:30.127Z,1999.90
2019-03-21T16:26:39.131Z,1719.27
2019-03-21T16:31:48.073Z,1708.00
2019-03-21T16:36:57.078Z,1706.10
2019-03-21T16:42:06.014Z,1999.90
2019-03-21T16:47:15.206Z,1692.54
2019-03-21T16:52:24.167Z,1660.15
2019-03-21T16:57:33.328Z,1641.08
2019-03-21T17:02:42.269Z,1440.78
2019-03-21T17:07:51.322Z,780.26
2019-03-21T17:13:04.425Z,63.69
2019-03-21T17:18:08.839Z,24.16
2019-03-21T17:23:17.790Z,58.25
2019-03-21T17:28:26.775Z,92.10
2019-03-21T17:33:35.730Z,98.61
2019-03-21T17:38:44.663Z,71.29
2019-03-21T17:43:53.621Z,33.94
2019-03-21T17:49:02.572Z,28.67
2019-03-21T17:54:11.559Z,50.56
2019-03-21T17:59:20.582Z,111.76
2019-03-21T18:04:29.522Z,103.83
2019-03-21T18:09:38.549Z,101.23
2019-03-21T18:14:47.465Z,94.76
2019-03-21T18:19:56.446Z,84.53
2019-03-21T18:25:05.439Z,69.07
2019-03-21T18:30:14.459Z,62.33
2019-03-21T18:35:23.455Z,33.93
2019-03-21T18:40:38.930Z,28.41
2019-03-21T18:45:37.925Z,26.32
2019-03-21T18:50:47.010Z,26.95
2019-03-21T18:55:55.990Z,28.63
2019-03-21T19:01:04.990Z,24.44
2019-03-21T19:06:13.978Z,26.96
2019-03-21T19:11:22.970Z,24.71
2019-03-21T19:16:32.120Z,35.92
2019-03-21T19:21:40.958Z,26.05
2019-03-21T19:26:49.930Z,44.87
2019-03-21T19:31:58.906Z,34.05
2019-03-21T19:37:07.882Z,35.96
2019-03-21T19:42:16.906Z,42.89
2019-03-21T19:47:30.280Z,47.82
2019-03-21T19:52:34.411Z,49.72
2019-03-21T19:57:43.417Z,50.37
2019-03-21T20:02:52.406Z,59.05
2019-03-21T20:08:01.381Z,66.53
2019-03-21T20:13:10.472Z,77.86
2019-03-21T20:18:19.478Z,86.42
2019-03-21T20:23:28.475Z,82.36
2019-03-21T20:28:37.454Z,86.91
2019-03-21T20:33:46.542Z,121.22
2019-03-21T20:38:55.518Z,70.58
2019-03-21T20:44:14.760Z,60.74
2019-03-21T20:49:13.126Z,59.81
2019-03-21T20:54:22.126Z,83.60
2019-03-21T20:59:31.136Z,55.10
2019-03-21T21:04:40.171Z,73.56
2019-03-21T21:09:49.103Z,78.71
2019-03-21T21:14:58.106Z,57.25
2019-03-21T21:20:07.083Z,39.77
2019-03-21T21:25:16.128Z,28.86
2019-03-21T21:30:25.139Z,18.84
2019-03-21T21:35:34.227Z,19.28
2019-03-21T21:40:43.235Z,19.75
2019-03-21T21:45:52.233Z,23.86
2019-03-21T21:51:01.236Z,64.87
2019-03-21T21:56:17.668Z,29.68
2019-03-21T22:01:18.794Z,20.50
2019-03-21T22:06:27.814Z,28.24
2019-03-21T22:11:36.798Z,36.76
2019-03-21T22:16:45.810Z,20.57
2019-03-21T22:21:54.787Z,81.74
2019-03-21T22:27:03.849Z,49.35
2019-03-21T22:32:12.818Z,45.88
2019-03-21T22:37:21.971Z,30.87
2019-03-21T22:42:30.916Z,58.49
2019-03-21T22:47:39.986Z,62.67
2019-03-21T22:52:48.981Z,69.29
2019-03-21T22:57:57.974Z,57.21
2019-03-21T23:03:06.907Z,75.76
2019-03-21T23:08:15.959Z,56.87
2019-03-21T23:13:24.950Z,58.27
2019-03-21T23:18:33.946Z,39.22
2019-03-21T23:23:42.890Z,46.32
2019-03-21T23:28:51.992Z,25.42
2019-03-21T23:34:00.982Z,47.39
2019-03-21T23:39:09.998Z,58.30
2019-03-21T23:44:18.919Z,32.44
2019-03-21T23:49:27.983Z,35.96
2019-03-21T23:54:36.966Z,35.94
2019-03-21T23:59:46.002Z,47.53
